createdAt,value
2022-11-06T00:01:07.432Z,5.67
2022-11-06T00:03:37.084Z,4.47
2022-11-06T00:06:30.871Z,4.93
2022-11-06T00:09:01.601Z,4.37
2022-11-06T00:11:32.233Z,5.00
2022-11-06T00:14:02.717Z,4.77
2022-11-06T00:16:32.553Z,4.53
2022-11-06T00:19:06.935Z,4.80
2022-11-06T00:21:37.077Z,5.83
2022-11-06T00:24:07.605Z,4.53
2022-11-06T00:26:35.513Z,4.57
2022-11-06T00:29:03.108Z,5.07
2022-11-06T00:31:31.855Z,4.87
2022-11-06T00:33:59.981Z,4.80
2022-11-06T00:36:30.196Z,4.77
2022-11-06T00:38:57.832Z,5.47
2022-11-06T00:41:25.466Z,5.67
2022-11-06T00:44:02.783Z,5.27
2022-11-06T00:46:30.299Z,5.10
2022-11-06T00:48:57.638Z,4.67
2022-11-06T00:51:27.665Z,5.37
2022-11-06T00:53:56.387Z,4.37
2022-11-06T00:56:23.904Z,5.03
2022-11-06T00:58:51.417Z,4.03
2022-11-06T01:01:20.127Z,4.77
2022-11-06T01:03:49.474Z,5.20
2022-11-06T01:06:18.120Z,5.37
2022-11-06T01:08:46.249Z,5.43
2022-11-06T01:11:21.136Z,4.70
2022-11-06T01:13:50.228Z,4.83
2022-11-06T01:16:18.074Z,5.13
2022-11-06T01:18:48.529Z,4.70
2022-11-06T01:21:17.831Z,4.57
2022-11-06T01:23:45.197Z,4.80
2022-11-06T01:26:13.356Z,4.77
2022-11-06T01:28:41.222Z,4.30
2022-11-06T01:31:09.765Z,4.27
2022-11-06T01:33:36.885Z,4.40
2022-11-06T01:36:04.175Z,5.37
2022-11-06T01:38:31.363Z,4.23
2022-11-06T01:40:58.635Z,4.50
2022-11-06T01:43:27.354Z,4.40
2022-11-06T01:45:56.261Z,4.20
2022-11-06T01:48:24.940Z,3.87
2022-11-06T01:50:53.561Z,4.13
2022-11-06T01:53:21.309Z,4.27
2022-11-06T01:55:49.470Z,4.30
2022-11-06T01:58:19.202Z,3.77
2022-11-06T02:00:48.341Z,3.50
2022-11-06T02:03:15.595Z,3.80
2022-11-06T02:05:43.173Z,3.80
2022-11-06T02:08:15.764Z,3.60
2022-11-06T02:10:43.488Z,3.60
2022-11-06T02:13:13.612Z,4.37
2022-11-06T02:15:45.835Z,4.40
2022-11-06T02:18:16.257Z,4.10
2022-11-06T02:21:02.419Z,4.13
2022-11-06T02:23:38.237Z,3.80
2022-11-06T02:26:14.428Z,3.63
2022-11-06T02:28:47.726Z,4.57
2022-11-06T02:31:17.652Z,4.47
2022-11-06T02:33:47.484Z,4.43
2022-11-06T02:36:17.095Z,4.00
2022-11-06T02:38:49.929Z,4.43
2022-11-06T02:41:25.686Z,4.57
2022-11-06T02:43:55.489Z,4.00
2022-11-06T02:46:25.381Z,4.37
2022-11-06T02:48:56.847Z,3.67
2022-11-06T02:51:26.345Z,4.10
2022-11-06T02:53:54.009Z,4.40
2022-11-06T02:56:23.262Z,4.00
2022-11-06T02:58:53.734Z,4.20
2022-11-06T03:01:31.457Z,4.23
2022-11-06T03:04:01.746Z,4.37
2022-11-06T03:06:37.211Z,3.70
2022-11-06T03:09:07.347Z,4.23
2022-11-06T03:11:41.419Z,4.30
2022-11-06T03:14:17.029Z,3.83
2022-11-06T03:16:44.281Z,3.97
2022-11-06T03:19:30.288Z,4.03
2022-11-06T03:21:57.696Z,4.43
2022-11-06T03:24:31.503Z,3.80
2022-11-06T03:26:59.989Z,4.50
2022-11-06T03:29:35.453Z,3.80
2022-11-06T03:32:06.543Z,3.10
2022-11-06T03:34:39.352Z,4.00
2022-11-06T03:37:11.478Z,3.77
2022-11-06T03:39:40.900Z,3.87
2022-11-06T03:42:13.053Z,3.83
2022-11-06T03:44:42.211Z,3.57
2022-11-06T03:47:13.530Z,3.83
2022-11-06T03:49:43.995Z,3.70
2022-11-06T03:52:17.047Z,5.13
2022-11-06T03:54:48.327Z,3.83
2022-11-06T03:57:19.188Z,4.57
2022-11-06T03:59:49.321Z,2.90
2022-11-06T04:02:17.699Z,3.53
2022-11-06T04:04:51.079Z,4.87
2022-11-06T04:07:20.604Z,3.23
2022-11-06T04:10:09.290Z,3.60
2022-11-06T04:12:56.155Z,3.47
2022-11-06T04:15:23.678Z,3.47
2022-11-06T04:17:50.993Z,3.17
2022-11-06T04:20:39.639Z,3.33
2022-11-06T04:23:11.585Z,3.13
2022-11-06T04:26:04.725Z,3.53
2022-11-06T04:28:44.088Z,3.43
2022-11-06T04:31:29.321Z,3.90
2022-11-06T04:34:00.924Z,3.37
2022-11-06T04:36:33.043Z,3.30
2022-11-06T04:39:07.109Z,4.00
2022-11-06T04:41:37.310Z,3.40
2022-11-06T04:44:10.953Z,3.03
2022-11-06T04:46:41.766Z,3.03
2022-11-06T04:49:09.472Z,3.17
2022-11-06T04:51:38.223Z,3.27
2022-11-06T04:54:07.202Z,3.10
2022-11-06T04:56:36.594Z,2.93
2022-11-06T04:59:06.557Z,2.70
2022-11-06T05:01:33.895Z,2.83
2022-11-06T05:04:01.155Z,2.93
2022-11-06T05:06:30.210Z,3.60
2022-11-06T05:08:58.990Z,2.80
2022-11-06T05:11:26.215Z,3.50
2022-11-06T05:13:53.348Z,3.10
2022-11-06T05:16:20.512Z,2.90
2022-11-06T05:18:47.903Z,2.90
2022-11-06T05:21:33.889Z,3.00
2022-11-06T05:24:01.028Z,2.80
2022-11-06T05:26:28.182Z,3.00
2022-11-06T05:28:55.365Z,3.23
2022-11-06T05:31:22.610Z,3.07
2022-11-06T05:33:49.826Z,3.67
2022-11-06T05:36:17.048Z,2.80
2022-11-06T05:38:44.179Z,2.93
2022-11-06T05:41:11.594Z,2.90
2022-11-06T05:43:38.829Z,2.93
2022-11-06T05:46:14.955Z,3.27
2022-11-06T05:48:51.256Z,3.17
2022-11-06T05:51:18.528Z,2.70
2022-11-06T05:53:45.639Z,3.40
2022-11-06T05:56:12.803Z,2.87
2022-11-06T05:58:39.898Z,2.53
2022-11-06T06:01:07.085Z,2.93
2022-11-06T06:03:34.213Z,2.80
2022-11-06T06:06:01.379Z,2.90
2022-11-06T06:08:28.575Z,2.80
2022-11-06T06:10:55.699Z,3.23
2022-11-06T06:13:22.860Z,3.07
2022-11-06T06:15:49.995Z,4.20
2022-11-06T06:18:17.105Z,2.53
2022-11-06T06:20:44.251Z,2.70
2022-11-06T06:23:11.538Z,2.60
2022-11-06T06:25:38.645Z,3.13
2022-11-06T06:28:05.833Z,2.87
2022-11-06T06:30:33.011Z,2.77
2022-11-06T06:33:04.242Z,2.87
2022-11-06T06:35:31.456Z,2.93
2022-11-06T06:37:58.691Z,2.80
2022-11-06T06:40:27.440Z,2.87
2022-11-06T06:42:58.399Z,4.37
2022-11-06T06:45:26.352Z,3.00
2022-11-06T06:47:53.849Z,2.63
2022-11-06T06:50:21.165Z,2.93
2022-11-06T06:52:48.402Z,3.23
2022-11-06T06:55:15.562Z,2.73
2022-11-06T06:57:43.216Z,2.33
2022-11-06T07:00:10.893Z,2.70
2022-11-06T07:02:38.038Z,2.73
2022-11-06T07:05:05.490Z,2.93
2022-11-06T07:07:33.161Z,2.97
2022-11-06T07:10:00.302Z,2.90
2022-11-06T07:12:28.173Z,3.00
2022-11-06T07:14:55.297Z,2.23
2022-11-06T07:17:22.779Z,3.00
2022-11-06T07:19:49.951Z,2.77
2022-11-06T07:22:19.331Z,3.23
2022-11-06T07:24:50.527Z,2.70
2022-11-06T07:27:17.762Z,2.73
2022-11-06T07:29:44.913Z,2.60
2022-11-06T07:32:12.220Z,2.53
2022-11-06T07:34:39.332Z,2.33
2022-11-06T07:37:07.811Z,2.30
2022-11-06T07:39:35.593Z,2.03
2022-11-06T07:42:02.994Z,2.50
2022-11-06T07:44:30.140Z,2.67
2022-11-06T07:46:57.275Z,2.40
2022-11-06T07:49:24.363Z,2.77
2022-11-06T07:51:51.586Z,2.33
2022-11-06T07:54:18.739Z,2.33
2022-11-06T07:56:45.865Z,2.20
2022-11-06T07:59:13.130Z,2.47
2022-11-06T08:01:40.378Z,2.67
2022-11-06T08:04:07.724Z,2.10
2022-11-06T08:06:34.981Z,2.60
2022-11-06T08:09:05.398Z,1.83
2022-11-06T08:11:32.502Z,2.03
2022-11-06T08:14:02.522Z,2.60
2022-11-06T08:16:29.837Z,2.47
2022-11-06T08:18:57.227Z,2.20
2022-11-06T08:21:24.342Z,2.30
2022-11-06T08:23:51.512Z,2.57
2022-11-06T08:26:18.623Z,2.50
2022-11-06T08:28:45.756Z,2.33
2022-11-06T08:31:13.209Z,2.00
2022-11-06T08:33:40.574Z,2.10
2022-11-06T08:36:08.733Z,3.30
2022-11-06T08:38:36.802Z,3.20
2022-11-06T08:41:08.281Z,2.90
2022-11-06T08:43:35.785Z,2.30
2022-11-06T08:46:03.408Z,2.47
2022-11-06T08:48:32.121Z,2.40
2022-11-06T08:50:59.294Z,2.23
2022-11-06T08:53:26.572Z,2.03
2022-11-06T08:55:53.799Z,2.40
2022-11-06T08:58:20.908Z,2.50
2022-11-06T09:00:48.080Z,2.10
2022-11-06T09:03:18.277Z,2.83
2022-11-06T09:05:45.946Z,2.37
2022-11-06T09:08:13.489Z,2.30
2022-11-06T09:10:41.315Z,2.53
2022-11-06T09:13:08.742Z,2.27
2022-11-06T09:15:36.040Z,1.97
2022-11-06T09:18:03.184Z,2.10
2022-11-06T09:20:30.516Z,2.00
2022-11-06T09:23:01.883Z,2.30
2022-11-06T09:25:29.321Z,2.30
2022-11-06T09:27:59.389Z,2.03
2022-11-06T09:30:28.001Z,2.20
2022-11-06T09:32:56.173Z,2.17
2022-11-06T09:35:24.131Z,1.87
2022-11-06T09:37:51.762Z,1.77
2022-11-06T09:40:26.279Z,1.80
2022-11-06T09:42:56.542Z,2.00
2022-11-06T09:45:25.478Z,1.70
2022-11-06T09:47:55.476Z,1.90
2022-11-06T09:50:25.229Z,2.40
2022-11-06T09:53:01.705Z,1.73
2022-11-06T09:55:36.029Z,1.83
2022-11-06T09:58:06.592Z,2.50
2022-11-06T10:00:33.803Z,2.13
2022-11-06T10:03:05.276Z,1.80
2022-11-06T10:05:34.522Z,2.17
2022-11-06T10:08:06.286Z,1.70
2022-11-06T10:10:47.336Z,1.90
2022-11-06T10:13:20.383Z,1.77
2022-11-06T10:16:05.863Z,2.30
2022-11-06T10:18:45.386Z,1.60
2022-11-06T10:21:17.313Z,1.90
2022-11-06T10:23:47.559Z,3.00
2022-11-06T10:26:16.199Z,2.10
2022-11-06T10:29:02.032Z,1.90
2022-11-06T10:31:34.955Z,2.43
2022-11-06T10:34:14.101Z,2.10
2022-11-06T10:37:06.336Z,2.43
2022-11-06T10:39:34.890Z,5.07
2022-11-06T10:42:16.950Z,2.40
2022-11-06T10:44:49.084Z,2.30
2022-11-06T10:47:16.815Z,2.27
2022-11-06T10:49:46.947Z,2.07
2022-11-06T10:52:26.714Z,2.10
2022-11-06T10:55:12.582Z,3.63
2022-11-06T10:57:44.120Z,2.13
2022-11-06T11:00:12.546Z,1.80
2022-11-06T11:02:41.038Z,2.40
2022-11-06T11:05:15.166Z,2.00
2022-11-06T11:07:42.535Z,2.33
2022-11-06T11:10:25.014Z,1.97
2022-11-06T11:12:53.512Z,1.60
2022-11-06T11:15:21.958Z,2.00
2022-11-06T11:18:08.023Z,1.60
2022-11-06T11:20:36.444Z,2.33
2022-11-06T11:23:20.725Z,1.93
2022-11-06T11:25:49.168Z,2.03
2022-11-06T11:28:22.485Z,2.20
2022-11-06T11:30:54.273Z,2.10
2022-11-06T11:33:22.777Z,1.90
2022-11-06T11:35:51.553Z,1.90
2022-11-06T11:38:19.115Z,3.30
2022-11-06T11:40:46.373Z,2.33
2022-11-06T11:43:28.570Z,2.37
2022-11-06T11:46:03.535Z,2.00
2022-11-06T11:48:47.370Z,2.00
2022-11-06T11:51:32.600Z,1.97
2022-11-06T11:54:29.085Z,2.00
2022-11-06T11:57:19.543Z,1.77
2022-11-06T11:59:59.226Z,2.10
2022-11-06T12:02:29.729Z,2.13
2022-11-06T12:04:58.817Z,2.30
2022-11-06T12:07:26.013Z,1.83
2022-11-06T12:09:53.379Z,2.30
2022-11-06T12:12:26.377Z,2.10
2022-11-06T12:15:11.924Z,2.10
2022-11-06T12:17:40.330Z,2.53
2022-11-06T12:20:14.817Z,2.40
2022-11-06T12:22:44.773Z,2.53
2022-11-06T12:25:16.282Z,2.10
2022-11-06T12:27:47.708Z,2.17
2022-11-06T12:30:16.487Z,1.87
2022-11-06T12:33:02.567Z,2.70
2022-11-06T12:35:29.782Z,3.10
2022-11-06T12:38:16.680Z,2.87
2022-11-06T12:40:55.061Z,3.43
2022-11-06T12:43:34.686Z,2.00
2022-11-06T12:46:20.411Z,2.23
2022-11-06T12:48:50.424Z,3.07
2022-11-06T12:51:32.651Z,2.43
2022-11-06T12:53:59.768Z,1.90
2022-11-06T12:56:44.145Z,2.33
2022-11-06T12:59:20.439Z,2.50
2022-11-06T13:01:56.618Z,3.20
2022-11-06T13:04:23.789Z,3.50
2022-11-06T13:06:53.725Z,2.83
2022-11-06T13:09:46.993Z,2.53
2022-11-06T13:12:14.139Z,2.47
2022-11-06T13:14:56.337Z,2.53
2022-11-06T13:17:35.148Z,2.13
2022-11-06T13:20:21.012Z,3.40
2022-11-06T13:22:55.590Z,2.00
2022-11-06T13:25:31.976Z,2.30
2022-11-06T13:28:07.596Z,1.80
2022-11-06T13:30:37.741Z,2.60
2022-11-06T13:33:11.055Z,2.77
2022-11-06T13:35:39.865Z,2.80
2022-11-06T13:38:14.018Z,2.43
2022-11-06T13:40:43.010Z,2.57
2022-11-06T13:43:13.161Z,2.63
2022-11-06T13:45:43.097Z,2.10
2022-11-06T13:48:25.293Z,4.07
2022-11-06T13:50:58.556Z,3.40
2022-11-06T13:53:44.474Z,2.87
2022-11-06T13:56:30.352Z,3.33
2022-11-06T13:59:12.668Z,2.47
2022-11-06T14:01:50.396Z,2.20
2022-11-06T14:04:17.658Z,2.40
2022-11-06T14:06:45.474Z,1.90
2022-11-06T14:09:25.231Z,2.37
2022-11-06T14:12:00.369Z,1.87
2022-11-06T14:14:29.052Z,1.73
2022-11-06T14:17:14.668Z,1.77
2022-11-06T14:19:47.671Z,1.53
2022-11-06T14:22:24.067Z,2.27
2022-11-06T14:24:51.272Z,2.03
2022-11-06T14:27:24.602Z,2.37
2022-11-06T14:29:58.071Z,1.80
2022-11-06T14:32:25.171Z,2.00
2022-11-06T14:34:52.353Z,2.43
2022-11-06T14:37:19.479Z,1.90
2022-11-06T14:39:53.010Z,2.40
2022-11-06T14:42:29.216Z,2.60
2022-11-06T14:45:02.451Z,2.20
2022-11-06T14:47:37.489Z,2.27
2022-11-06T14:50:25.630Z,2.20
2022-11-06T14:53:03.308Z,1.87
2022-11-06T14:55:53.170Z,2.10
2022-11-06T14:58:23.121Z,2.63
2022-11-06T15:00:50.268Z,2.50
2022-11-06T15:03:20.546Z,3.67
2022-11-06T15:05:52.108Z,2.60
2022-11-06T15:08:52.302Z,3.10
2022-11-06T15:11:47.762Z,2.50
2022-11-06T15:14:15.474Z,3.83
2022-11-06T15:16:43.998Z,2.90
2022-11-06T15:19:22.955Z,2.10
2022-11-06T15:21:54.032Z,2.10
2022-11-06T15:24:25.632Z,5.67
2022-11-06T15:26:55.054Z,3.67
2022-11-06T15:29:26.979Z,3.13
2022-11-06T15:31:59.462Z,2.37
2022-11-06T15:34:29.912Z,2.97
2022-11-06T15:37:23.477Z,2.77
2022-11-06T15:40:00.199Z,2.30
2022-11-06T15:42:37.871Z,2.57
2022-11-06T15:45:09.494Z,3.23
2022-11-06T15:47:36.696Z,2.87
2022-11-06T15:50:12.988Z,2.80
2022-11-06T15:52:40.471Z,2.50
2022-11-06T15:55:07.828Z,2.43
2022-11-06T15:57:38.035Z,2.63
2022-11-06T16:00:17.744Z,2.60
2022-11-06T16:03:01.161Z,2.70
2022-11-06T16:05:29.494Z,2.83
2022-11-06T16:07:57.606Z,2.57
2022-11-06T16:10:25.079Z,2.33
2022-11-06T16:12:53.583Z,3.13
2022-11-06T16:15:39.560Z,3.33
2022-11-06T16:18:07.396Z,4.10
2022-11-06T16:20:34.551Z,2.70
2022-11-06T16:23:04.777Z,3.00
2022-11-06T16:25:31.971Z,2.30
2022-11-06T16:27:59.163Z,2.40
2022-11-06T16:30:26.337Z,2.43
2022-11-06T16:32:53.627Z,2.40
2022-11-06T16:35:34.505Z,2.30
2022-11-06T16:38:40.371Z,2.27
2022-11-06T16:41:08.820Z,2.27
2022-11-06T16:43:36.087Z,2.77
2022-11-06T16:46:06.960Z,2.70
2022-11-06T16:48:36.059Z,5.07
2022-11-06T16:51:05.020Z,6.73
2022-11-06T16:53:33.243Z,2.53
2022-11-06T16:56:01.811Z,3.70
2022-11-06T16:58:30.669Z,3.00
2022-11-06T17:00:59.694Z,2.30
2022-11-06T17:03:27.669Z,2.23
2022-11-06T17:05:58.709Z,2.07
2022-11-06T17:08:28.683Z,1.87
2022-11-06T17:10:59.096Z,2.40
2022-11-06T17:13:27.848Z,2.37
2022-11-06T17:15:56.758Z,2.07
2022-11-06T17:18:26.055Z,2.20
2022-11-06T17:21:00.814Z,2.03
2022-11-06T17:23:28.573Z,2.17
2022-11-06T17:26:01.635Z,2.97
2022-11-06T17:28:28.753Z,2.20
2022-11-06T17:30:55.982Z,2.40
2022-11-06T17:33:23.157Z,2.50
2022-11-06T17:35:50.316Z,2.27
2022-11-06T17:38:17.939Z,3.67
2022-11-06T17:40:45.682Z,2.47
2022-11-06T17:43:13.278Z,2.03
2022-11-06T17:45:42.457Z,2.00
2022-11-06T17:48:09.634Z,2.13
2022-11-06T17:50:55.561Z,2.47
2022-11-06T17:53:23.844Z,2.37
2022-11-06T17:55:50.970Z,2.40
2022-11-06T17:58:18.257Z,2.50
2022-11-06T18:00:45.379Z,2.53
2022-11-06T18:03:19.504Z,3.20
2022-11-06T18:05:47.030Z,3.73
2022-11-06T18:08:14.887Z,2.90
2022-11-06T18:10:42.333Z,2.70
2022-11-06T18:13:09.446Z,3.40
2022-11-06T18:15:37.519Z,3.30
2022-11-06T18:18:04.763Z,2.80
2022-11-06T18:20:31.878Z,2.70
2022-11-06T18:22:59.007Z,2.60
2022-11-06T18:25:26.123Z,3.50
2022-11-06T18:27:53.228Z,2.70
2022-11-06T18:30:20.405Z,2.43
2022-11-06T18:32:47.525Z,2.70
2022-11-06T18:35:14.680Z,2.50
2022-11-06T18:37:41.793Z,2.53
2022-11-06T18:40:09.207Z,3.00
2022-11-06T18:42:36.293Z,2.60
2022-11-06T18:45:04.541Z,2.87
2022-11-06T18:47:31.643Z,3.10
2022-11-06T18:49:58.743Z,3.00
2022-11-06T18:52:51.660Z,3.10
2022-11-06T18:55:13.065Z,2.70
2022-11-06T18:57:40.170Z,2.20
2022-11-06T19:00:07.794Z,2.40
2022-11-06T19:02:35.030Z,6.07
2022-11-06T19:05:02.826Z,2.70
2022-11-06T19:07:29.980Z,2.70
2022-11-06T19:09:57.150Z,2.93
2022-11-06T19:12:24.248Z,2.60
2022-11-06T19:14:51.402Z,3.07
2022-11-06T19:17:18.514Z,2.30
2022-11-06T19:19:45.712Z,2.47
2022-11-06T19:22:12.856Z,2.50
2022-11-06T19:24:40.005Z,2.70
2022-11-06T19:27:08.745Z,3.63
2022-11-06T19:29:36.340Z,3.40
2022-11-06T19:32:03.672Z,3.90
2022-11-06T19:34:38.927Z,3.60
2022-11-06T19:37:09.173Z,2.83
2022-11-06T19:39:39.391Z,2.87
2022-11-06T19:42:09.407Z,3.93
2022-11-06T19:44:36.586Z,2.77
2022-11-06T19:47:03.728Z,3.17
2022-11-06T19:49:31.799Z,3.30
2022-11-06T19:52:42.817Z,5.10
2022-11-06T19:54:46.059Z,5.77
2022-11-06T19:57:28.917Z,17.63
2022-11-06T19:59:56.977Z,37.53
2022-11-06T20:02:24.209Z,18.47
2022-11-06T20:04:51.740Z,6.37
2022-11-06T20:07:19.011Z,2.80
2022-11-06T20:09:46.272Z,2.40
2022-11-06T20:12:15.840Z,2.70
2022-11-06T20:14:42.990Z,2.57
2022-11-06T20:17:10.150Z,2.93
2022-11-06T20:19:37.312Z,2.10
2022-11-06T20:22:04.454Z,3.00
2022-11-06T20:24:31.665Z,2.50
2022-11-06T20:26:58.828Z,3.30
2022-11-06T20:29:26.138Z,2.97
2022-11-06T20:31:53.268Z,2.47
2022-11-06T20:34:20.594Z,2.87
2022-11-06T20:36:47.770Z,2.50
2022-11-06T20:39:16.723Z,2.40
2022-11-06T20:41:43.998Z,2.23
2022-11-06T20:44:11.093Z,2.37
2022-11-06T20:46:38.734Z,2.93
2022-11-06T20:49:05.969Z,2.73
2022-11-06T20:51:43.045Z,2.93
2022-11-06T20:54:16.713Z,2.57
2022-11-06T20:56:43.949Z,2.40
2022-11-06T20:59:12.320Z,2.40
2022-11-06T21:01:39.676Z,2.17
2022-11-06T21:04:06.861Z,2.37
2022-11-06T21:06:34.063Z,2.07
2022-11-06T21:09:01.221Z,2.63
2022-11-06T21:11:28.673Z,2.57
2022-11-06T21:13:55.851Z,2.30
2022-11-06T21:16:24.739Z,2.43
2022-11-06T21:18:52.566Z,2.23
2022-11-06T21:21:21.664Z,2.03
2022-11-06T21:23:49.739Z,2.13
2022-11-06T21:26:18.387Z,2.47
2022-11-06T21:28:45.513Z,2.60
2022-11-06T21:31:13.816Z,2.90
2022-11-06T21:33:41.730Z,2.37
2022-11-06T21:36:10.311Z,2.73
2022-11-06T21:38:37.712Z,2.20
2022-11-06T21:41:06.089Z,2.20
2022-11-06T21:43:33.270Z,2.20
2022-11-06T21:46:03.893Z,2.30
2022-11-06T21:48:48.331Z,2.60
2022-11-06T21:51:17.583Z,2.90
2022-11-06T21:54:03.188Z,2.30
2022-11-06T21:56:30.641Z,2.40
2022-11-06T21:58:58.902Z,2.40
2022-11-06T22:01:26.942Z,2.40
2022-11-06T22:03:54.745Z,2.47
2022-11-06T22:06:24.556Z,2.50
2022-11-06T22:08:52.697Z,2.57
2022-11-06T22:11:21.096Z,2.10
2022-11-06T22:13:48.854Z,2.40
2022-11-06T22:16:17.041Z,2.80
2022-11-06T22:18:44.557Z,2.20
2022-11-06T22:21:11.697Z,2.20
2022-11-06T22:23:39.399Z,2.20
2022-11-06T22:26:07.262Z,3.40
2022-11-06T22:28:34.749Z,2.13
2022-11-06T22:31:02.688Z,2.43
2022-11-06T22:33:30.177Z,2.40
2022-11-06T22:36:05.445Z,2.40
2022-11-06T22:38:32.754Z,2.23
2022-11-06T22:41:00.799Z,2.87
2022-11-06T22:43:28.896Z,2.20
2022-11-06T22:46:00.208Z,2.60
2022-11-06T22:48:28.200Z,2.53
2022-11-06T22:50:55.663Z,2.50
2022-11-06T22:53:23.165Z,2.23
2022-11-06T22:55:50.318Z,2.50
2022-11-06T22:58:17.470Z,2.70
2022-11-06T23:00:44.573Z,2.10
2022-11-06T23:03:12.001Z,2.37
2022-11-06T23:05:40.082Z,2.40
2022-11-06T23:08:07.273Z,2.47
2022-11-06T23:10:36.355Z,2.97
2022-11-06T23:13:03.569Z,2.60
2022-11-06T23:15:30.904Z,2.30
2022-11-06T23:17:58.586Z,2.67
2022-11-06T23:20:25.843Z,2.43
2022-11-06T23:22:53.766Z,2.63
2022-11-06T23:25:20.988Z,2.40
2022-11-06T23:27:50.008Z,3.03
2022-11-06T23:30:17.275Z,2.17
2022-11-06T23:32:44.456Z,2.17
2022-11-06T23:35:13.858Z,2.20
2022-11-06T23:37:42.939Z,2.70
2022-11-06T23:40:11.231Z,2.80
2022-11-06T23:42:38.415Z,2.20
2022-11-06T23:45:24.495Z,2.50
2022-11-06T23:47:51.762Z,1.97
2022-11-06T23:50:18.990Z,2.40
2022-11-06T23:52:46.183Z,2.20
2022-11-06T23:55:13.301Z,2.70
2022-11-06T23:57:40.594Z,2.87
